This is the latest recevied weather packets stored in our database for station/object N0EDB-13. If no packets are shown the sender has not sent any weather packets the latest 10 day(s).
| Time | Temp. | Humidity | Pressure | Rain* | Wind** | Luminosity | Snow |
|---|---|---|---|---|---|---|---|
| 1777497863 | 16.67° C | 35% | 1485.4 hPa | 0 mm | - | 857 W/m² | - |
| 1777497563 | 16.11° C | 36% | 1487.3 hPa | 0 mm | - | 917 W/m² | - |
| 1777497263 | 16.11° C | 37% | 1487.6 hPa | 0 mm | - | 513 W/m² | - |
| 1777496962 | 16.11° C | 36% | 1487.5 hPa | 0 mm | - | 445 W/m² | - |
| 1777496662 | 15.56° C | 36% | 1488.3 hPa | 0 mm | - | 377 W/m² | - |
| 1777496362 | 15.56° C | 37% | 1489.7 hPa | 0 mm | - | 933 W/m² | - |
| 1777496061 | 15° C | 39% | 1490.4 hPa | 0 mm | - | 817 W/m² | - |
| 1777495761 | 15° C | 38% | 1490.3 hPa | 0 mm | - | 696 W/m² | - |
| 1777495461 | 15° C | 39% | 1491.1 hPa | 0 mm | - | 489 W/m² | - |
| 1777495160 | 15° C | 38% | 1490.4 hPa | 0 mm | - | 322 W/m² | - |
| 1777494859 | 15.56° C | 37% | 1490 hPa | 0 mm | - | 301 W/m² | - |
| 1777494559 | 15.56° C | 36% | 1489.6 hPa | 0 mm | - | 503 W/m² | - |
| 1777494259 | 15.56° C | 37% | 1489.3 hPa | 0 mm | - | 363 W/m² | - |
| 1777493958 | 15.56° C | 36% | 1489.6 hPa | 0 mm | - | 334 W/m² | - |
| 1777493657 | 15.56° C | 38% | 1489.9 hPa | 0 mm | - | 586 W/m² | - |
| 1777493356 | 15.56° C | 37% | 1490.2 hPa | 0 mm | - | 946 W/m² | - |
| 1777493055 | 14.44° C | 39% | 1491.7 hPa | 0 mm | - | 982 W/m² | - |
| 1777492754 | 14.44° C | 40% | 1493 hPa | 0 mm | - | 999 W/m² | - |
| 1777492454 | 13.89° C | 42% | 1494.5 hPa | 0 mm | - | 958 W/m² | - |
| 1777492153 | 13.33° C | 44% | 1495.7 hPa | 0 mm | - | 698 W/m² | - |
| 1777491853 | 12.78° C | 45% | 1497 hPa | 0 mm | - | 813 W/m² | - |
| 1777491553 | 12.22° C | 47% | 1498.7 hPa | 0 mm | - | 699 W/m² | - |
| 1777491252 | 12.22° C | 49% | 1499.9 hPa | 0 mm | - | 350 W/m² | - |
| 1777490951 | 12.22° C | 49% | 1499.6 hPa | 0 mm | - | 356 W/m² | - |
| 1777490651 | 12.22° C | 52% | 1499.6 hPa | 0 mm | - | 426 W/m² | - |
* Rain latest hour (hover to see other rain measurements)
** Current wind speed in m/s (hover to see current wind gust speed)